sensor_id;sensor_type;location;lat;lon;timestamp;pressure;altitude;pressure_sealevel;temperature;humidity
19576;BME280;41589;51.196;7.074;2022-08-21T00:04:11;99137.81;;;20.15;62.80
19576;BME280;41589;51.196;7.074;2022-08-21T00:09:12;99128.47;;;20.14;62.91
19576;BME280;41589;51.196;7.074;2022-08-21T00:14:13;99121.44;;;20.15;62.58
19576;BME280;41589;51.196;7.074;2022-08-21T00:19:13;99129.03;;;20.07;62.50
19576;BME280;41589;51.196;7.074;2022-08-21T00:24:14;99115.50;;;20.08;62.83
19576;BME280;41589;51.196;7.074;2022-08-21T00:29:15;99114.19;;;20.14;62.73
19576;BME280;41589;51.196;7.074;2022-08-21T00:34:15;99117.03;;;20.14;62.86
19576;BME280;41589;51.196;7.074;2022-08-21T00:39:16;99102.50;;;20.12;62.56
19576;BME280;41589;51.196;7.074;2022-08-21T00:44:16;99106.44;;;20.04;62.40
19576;BME280;41589;51.196;7.074;2022-08-21T00:49:16;99107.75;;;19.97;62.92
19576;BME280;41589;51.196;7.074;2022-08-21T00:54:19;99106.78;;;19.89;62.83
19576;BME280;41589;51.196;7.074;2022-08-21T00:59:21;99110.91;;;19.88;62.92
19576;BME280;41589;51.196;7.074;2022-08-21T01:04:22;99105.50;;;19.84;62.81
19576;BME280;41589;51.196;7.074;2022-08-21T01:09:23;99105.81;;;19.75;62.94
19576;BME280;41589;51.196;7.074;2022-08-21T01:14:23;99101.16;;;19.72;62.88
19576;BME280;41589;51.196;7.074;2022-08-21T01:19:25;99112.34;;;19.65;62.99
19576;BME280;41589;51.196;7.074;2022-08-21T01:24:26;99121.91;;;19.73;63.10
19576;BME280;41589;51.196;7.074;2022-08-21T01:29:38;99119.06;;;19.78;62.88
19576;BME280;41589;51.196;7.074;2022-08-21T01:34:41;99110.97;;;19.82;62.76
19576;BME280;41589;51.196;7.074;2022-08-21T01:39:42;99105.75;;;19.86;62.52
19576;BME280;41589;51.196;7.074;2022-08-21T01:44:43;99102.88;;;19.86;62.52
19576;BME280;41589;51.196;7.074;2022-08-21T01:49:44;99097.94;;;19.87;62.27
19576;BME280;41589;51.196;7.074;2022-08-21T01:54:45;99099.31;;;19.80;62.08
19576;BME280;41589;51.196;7.074;2022-08-21T01:59:45;99098.53;;;19.80;62.39
19576;BME280;41589;51.196;7.074;2022-08-21T02:04:45;99096.75;;;19.71;62.25
19576;BME280;41589;51.196;7.074;2022-08-21T02:09:46;99088.72;;;19.64;62.59
19576;BME280;41589;51.196;7.074;2022-08-21T02:14:46;99096.28;;;19.56;62.49
19576;BME280;41589;51.196;7.074;2022-08-21T02:19:47;99088.00;;;19.52;62.59
19576;BME280;41589;51.196;7.074;2022-08-21T02:24:47;99093.75;;;19.47;62.39
19576;BME280;41589;51.196;7.074;2022-08-21T02:29:47;99089.91;;;19.39;62.51
19576;BME280;41589;51.196;7.074;2022-08-21T02:34:48;99088.09;;;19.30;62.60
19576;BME280;41589;51.196;7.074;2022-08-21T02:39:49;99079.03;;;19.20;62.59
19576;BME280;41589;51.196;7.074;2022-08-21T02:44:56;99075.69;;;19.16;62.79
19576;BME280;41589;51.196;7.074;2022-08-21T02:50:00;99081.38;;;19.11;62.79
19576;BME280;41589;51.196;7.074;2022-08-21T02:55:00;99084.28;;;19.05;62.94
19576;BME280;41589;51.196;7.074;2022-08-21T03:00:04;99085.53;;;19.10;63.18
19576;BME280;41589;51.196;7.074;2022-08-21T03:05:07;99084.53;;;19.07;63.30
19576;BME280;41589;51.196;7.074;2022-08-21T03:10:08;99088.41;;;19.10;63.15
19576;BME280;41589;51.196;7.074;2022-08-21T03:15:11;99084.50;;;19.13;63.15
19576;BME280;41589;51.196;7.074;2022-08-21T03:20:14;99082.16;;;19.17;63.23
19576;BME280;41589;51.196;7.074;2022-08-21T03:25:15;99081.38;;;19.16;63.28
19576;BME280;41589;51.196;7.074;2022-08-21T03:30:19;99078.78;;;19.13;62.86
19576;BME280;41589;51.196;7.074;2022-08-21T03:35:20;99075.69;;;19.11;62.81
19576;BME280;41589;51.196;7.074;2022-08-21T03:40:21;99073.88;;;19.08;62.95
19576;BME280;41589;51.196;7.074;2022-08-21T03:45:22;99080.13;;;19.00;63.39
19576;BME280;41589;51.196;7.074;2022-08-21T03:50:28;99080.88;;;19.01;63.07
19576;BME280;41589;51.196;7.074;2022-08-21T03:55:29;99087.13;;;18.94;63.29
19576;BME280;41589;51.196;7.074;2022-08-21T04:00:30;99086.63;;;18.90;63.38
19576;BME280;41589;51.196;7.074;2022-08-21T04:05:30;99083.00;;;18.84;63.37
19576;BME280;41589;51.196;7.074;2022-08-21T04:10:32;99098.03;;;18.73;63.44
19576;BME280;41589;51.196;7.074;2022-08-21T04:15:34;99096.50;;;18.66;63.63
19576;BME280;41589;51.196;7.074;2022-08-21T04:20:35;99096.78;;;18.57;63.60
19576;BME280;41589;51.196;7.074;2022-08-21T04:25:35;99101.69;;;18.51;63.83
19576;BME280;41589;51.196;7.074;2022-08-21T04:30:36;99100.34;;;18.41;63.99
19576;BME280;41589;51.196;7.074;2022-08-21T04:35:36;99097.78;;;18.37;63.94
19576;BME280;41589;51.196;7.074;2022-08-21T04:40:36;99103.75;;;18.34;63.90
19576;BME280;41589;51.196;7.074;2022-08-21T04:45:41;99109.44;;;18.34;64.52
19576;BME280;41589;51.196;7.074;2022-08-21T04:50:44;99099.59;;;18.35;64.49
19576;BME280;41589;51.196;7.074;2022-08-21T04:55:46;99107.63;;;18.36;64.76
19576;BME280;41589;51.196;7.074;2022-08-21T05:00:47;99116.97;;;18.42;64.67
19576;BME280;41589;51.196;7.074;2022-08-21T05:05:48;99109.97;;;18.49;64.66
19576;BME280;41589;51.196;7.074;2022-08-21T05:10:49;99119.06;;;18.48;64.61
19576;BME280;41589;51.196;7.074;2022-08-21T05:15:50;99128.91;;;18.58;65.03
19576;BME280;41589;51.196;7.074;2022-08-21T05:20:50;99121.91;;;18.70;64.51
19576;BME280;41589;51.196;7.074;2022-08-21T05:25:52;99125.53;;;18.76;64.92
19576;BME280;41589;51.196;7.074;2022-08-21T05:30:53;99121.09;;;18.81;64.79
19576;BME280;41589;51.196;7.074;2022-08-21T05:35:54;99125.78;;;18.95;64.64
19576;BME280;41589;51.196;7.074;2022-08-21T05:40:57;99129.63;;;19.03;64.15
19576;BME280;41589;51.196;7.074;2022-08-21T05:45:57;99133.50;;;19.11;63.20
19576;BME280;41589;51.196;7.074;2022-08-21T05:51:04;99130.13;;;19.18;63.47
19576;BME280;41589;51.196;7.074;2022-08-21T05:56:05;99132.22;;;19.29;62.77
19576;BME280;41589;51.196;7.074;2022-08-21T06:01:06;99127.72;;;19.45;62.56
19576;BME280;41589;51.196;7.074;2022-08-21T06:06:08;99126.38;;;19.57;62.44
19576;BME280;41589;51.196;7.074;2022-08-21T06:11:09;99132.78;;;19.80;62.19
19576;BME280;41589;51.196;7.074;2022-08-21T06:16:14;99118.16;;;20.00;61.75
19576;BME280;41589;51.196;7.074;2022-08-21T06:21:15;99117.19;;;20.33;61.41
19576;BME280;41589;51.196;7.074;2022-08-21T06:26:16;99108.66;;;20.58;61.00
19576;BME280;41589;51.196;7.074;2022-08-21T06:31:20;99113.22;;;20.72;60.42
19576;BME280;41589;51.196;7.074;2022-08-21T06:36:21;99105.00;;;20.93;59.79
19576;BME280;41589;51.196;7.074;2022-08-21T06:41:21;99110.97;;;20.95;58.60
19576;BME280;41589;51.196;7.074;2022-08-21T06:46:26;99119.47;;;21.00;58.49
19576;BME280;41589;51.196;7.074;2022-08-21T06:51:27;99127.09;;;20.92;57.38
19576;BME280;41589;51.196;7.074;2022-08-21T06:56:28;99125.06;;;20.87;56.44
19576;BME280;41589;51.196;7.074;2022-08-21T07:01:29;99120.75;;;20.75;56.70
19576;BME280;41589;51.196;7.074;2022-08-21T07:06:29;99126.22;;;20.73;56.75
19576;BME280;41589;51.196;7.074;2022-08-21T07:11:30;99129.19;;;20.62;56.59
19576;BME280;41589;51.196;7.074;2022-08-21T07:16:30;99129.56;;;20.77;56.09
19576;BME280;41589;51.196;7.074;2022-08-21T07:21:31;99126.50;;;20.69;56.29
19576;BME280;41589;51.196;7.074;2022-08-21T07:26:31;99129.56;;;20.77;56.46
19576;BME280;41589;51.196;7.074;2022-08-21T07:31:32;99126.22;;;21.03;56.00
19576;BME280;41589;51.196;7.074;2022-08-21T07:36:32;99127.78;;;21.28;55.78
19576;BME280;41589;51.196;7.074;2022-08-21T07:41:33;99134.88;;;21.46;54.66
19576;BME280;41589;51.196;7.074;2022-08-21T07:46:37;99129.59;;;21.50;54.04
19576;BME280;41589;51.196;7.074;2022-08-21T07:51:38;99129.50;;;21.61;53.12
19576;BME280;41589;51.196;7.074;2022-08-21T07:56:38;99134.78;;;21.95;52.70
19576;BME280;41589;51.196;7.074;2022-08-21T08:01:39;99127.59;;;22.07;52.42
19576;BME280;41589;51.196;7.074;2022-08-21T08:06:39;99129.59;;;22.12;51.38
19576;BME280;41589;51.196;7.074;2022-08-21T08:11:43;99126.22;;;22.33;51.79
19576;BME280;41589;51.196;7.074;2022-08-21T08:16:47;99119.09;;;22.85;50.89
19576;BME280;41589;51.196;7.074;2022-08-21T08:21:47;99128.34;;;22.77;49.57
19576;BME280;41589;51.196;7.074;2022-08-21T08:26:48;99119.84;;;23.04;50.17
19576;BME280;41589;51.196;7.074;2022-08-21T08:31:48;99133.75;;;23.13;48.53
19576;BME280;41589;51.196;7.074;2022-08-21T08:36:48;99119.53;;;23.47;48.06
19576;BME280;41589;51.196;7.074;2022-08-21T08:41:49;99126.13;;;23.69;47.61
19576;BME280;41589;51.196;7.074;2022-08-21T08:46:52;99113.44;;;23.64;47.33
19576;BME280;41589;51.196;7.074;2022-08-21T08:51:56;99114.22;;;23.78;46.77
19576;BME280;41589;51.196;7.074;2022-08-21T08:57:00;99113.84;;;23.95;46.68
19576;BME280;41589;51.196;7.074;2022-08-21T09:02:01;99120.59;;;23.97;45.63
19576;BME280;41589;51.196;7.074;2022-08-21T09:07:16;99105.75;;;24.40;46.31
19576;BME280;41589;51.196;7.074;2022-08-21T09:12:48;99108.44;;;24.80;45.18
19576;BME280;41589;51.196;7.074;2022-08-21T09:28:25;99085.88;;;25.41;43.19
19576;BME280;41589;51.196;7.074;2022-08-21T09:33:26;99086.03;;;25.72;42.48
19576;BME280;41589;51.196;7.074;2022-08-21T09:38:34;99089.50;;;25.70;40.73
19576;BME280;41589;51.196;7.074;2022-08-21T09:43:36;99082.34;;;25.64;40.77
19576;BME280;41589;51.196;7.074;2022-08-21T09:48:45;99088.69;;;26.06;40.34
19576;BME280;41589;51.196;7.074;2022-08-21T09:53:52;99085.44;;;26.17;40.15
19576;BME280;41589;51.196;7.074;2022-08-21T09:58:53;99081.53;;;26.66;39.49
19576;BME280;41589;51.196;7.074;2022-08-21T10:04:31;99074.22;;;26.95;39.43
19576;BME280;41589;51.196;7.074;2022-08-21T10:09:31;99066.91;;;27.10;38.13
19576;BME280;41589;51.196;7.074;2022-08-21T10:19:59;99066.31;;;27.11;37.85
19576;BME280;41589;51.196;7.074;2022-08-21T10:30:09;99066.84;;;27.32;36.99
19576;BME280;41589;51.196;7.074;2022-08-21T10:35:42;99045.59;;;27.45;35.84
19576;BME280;41589;51.196;7.074;2022-08-21T10:40:59;99050.09;;;27.31;35.75
19576;BME280;41589;51.196;7.074;2022-08-21T10:46:17;99048.19;;;27.18;35.54
19576;BME280;41589;51.196;7.074;2022-08-21T10:51:35;99056.09;;;27.02;35.29
19576;BME280;41589;51.196;7.074;2022-08-21T10:56:41;99041.66;;;26.95;35.32
19576;BME280;41589;51.196;7.074;2022-08-21T11:01:54;99044.56;;;26.80;35.12
19576;BME280;41589;51.196;7.074;2022-08-21T11:12:44;99051.28;;;26.44;35.05
19576;BME280;41589;51.196;7.074;2022-08-21T11:17:52;99047.56;;;26.21;35.21
19576;BME280;41589;51.196;7.074;2022-08-21T11:23:15;99042.34;;;26.04;35.92
19576;BME280;41589;51.196;7.074;2022-08-21T11:28:30;99049.06;;;26.06;37.01
19576;BME280;41589;51.196;7.074;2022-08-21T11:39:22;99027.44;;;26.36;36.53
19576;BME280;41589;51.196;7.074;2022-08-21T11:44:44;99037.25;;;26.48;36.12
19576;BME280;41589;51.196;7.074;2022-08-21T11:50:13;99043.19;;;26.42;35.34
19576;BME280;41589;51.196;7.074;2022-08-21T11:55:26;99029.75;;;26.60;35.75
19576;BME280;41589;51.196;7.074;2022-08-21T12:05:35;99031.84;;;26.29;35.44
19576;BME280;41589;51.196;7.074;2022-08-21T12:10:41;99027.59;;;26.30;35.09
19576;BME280;41589;51.196;7.074;2022-08-21T12:15:41;99028.09;;;25.98;35.80
19576;BME280;41589;51.196;7.074;2022-08-21T12:26:26;99016.09;;;26.45;36.26
19576;BME280;41589;51.196;7.074;2022-08-21T12:31:29;99016.66;;;26.67;34.31
19576;BME280;41589;51.196;7.074;2022-08-21T12:36:43;99022.81;;;26.48;34.55
19576;BME280;41589;51.196;7.074;2022-08-21T12:42:05;99026.84;;;26.75;35.55
19576;BME280;41589;51.196;7.074;2022-08-21T12:47:16;99026.47;;;26.94;34.21
19576;BME280;41589;51.196;7.074;2022-08-21T12:52:30;99029.69;;;27.21;33.22
19576;BME280;41589;51.196;7.074;2022-08-21T12:57:35;99015.19;;;27.37;33.25
19576;BME280;41589;51.196;7.074;2022-08-21T13:02:39;99017.22;;;27.03;33.09
19576;BME280;41589;51.196;7.074;2022-08-21T13:07:47;99020.88;;;26.81;33.68
19576;BME280;41589;51.196;7.074;2022-08-21T13:12:49;99013.56;;;26.72;33.77
19576;BME280;41589;51.196;7.074;2022-08-21T13:17:50;99015.88;;;26.74;32.86
19576;BME280;41589;51.196;7.074;2022-08-21T13:22:51;99010.91;;;26.90;33.69
19576;BME280;41589;51.196;7.074;2022-08-21T13:28:11;99007.25;;;26.89;33.63
19576;BME280;41589;51.196;7.074;2022-08-21T13:33:14;99012.22;;;26.81;32.99
19576;BME280;41589;51.196;7.074;2022-08-21T13:38:22;99003.19;;;26.77;33.61
19576;BME280;41589;51.196;7.074;2022-08-21T13:43:32;99003.94;;;27.00;33.42
19576;BME280;41589;51.196;7.074;2022-08-21T13:48:33;99004.13;;;27.02;33.71
19576;BME280;41589;51.196;7.074;2022-08-21T13:58:44;99001.25;;;26.87;32.73
19576;BME280;41589;51.196;7.074;2022-08-21T14:03:47;99006.47;;;26.66;32.83
19576;BME280;41589;51.196;7.074;2022-08-21T14:08:56;98998.56;;;26.89;33.88
19576;BME280;41589;51.196;7.074;2022-08-21T14:14:01;99002.94;;;27.13;32.68
19576;BME280;41589;51.196;7.074;2022-08-21T14:24:09;98987.13;;;27.22;32.53
19576;BME280;41589;51.196;7.074;2022-08-21T14:29:15;98977.31;;;27.17;32.85
19576;BME280;41589;51.196;7.074;2022-08-21T14:34:16;98978.63;;;27.31;32.87
19576;BME280;41589;51.196;7.074;2022-08-21T14:39:17;98972.75;;;27.62;31.20
19576;BME280;41589;51.196;7.074;2022-08-21T14:44:18;98968.81;;;27.75;31.20
19576;BME280;41589;51.196;7.074;2022-08-21T14:49:19;98974.03;;;27.69;31.09
19576;BME280;41589;51.196;7.074;2022-08-21T14:54:19;98969.41;;;27.73;31.40
19576;BME280;41589;51.196;7.074;2022-08-21T14:59:20;98959.91;;;27.80;30.82
19576;BME280;41589;51.196;7.074;2022-08-21T15:04:23;98962.13;;;27.65;29.85
19576;BME280;41589;51.196;7.074;2022-08-21T15:09:34;98961.22;;;27.54;30.42
19576;BME280;41589;51.196;7.074;2022-08-21T15:14:36;98971.91;;;27.69;30.70
19576;BME280;41589;51.196;7.074;2022-08-21T15:19:38;98957.19;;;27.42;30.27
19576;BME280;41589;51.196;7.074;2022-08-21T15:24:39;98959.69;;;27.46;31.48
19576;BME280;41589;51.196;7.074;2022-08-21T15:29:41;98954.75;;;27.31;30.63
19576;BME280;41589;51.196;7.074;2022-08-21T15:34:41;98966.50;;;27.25;31.08
19576;BME280;41589;51.196;7.074;2022-08-21T15:39:42;98950.53;;;27.17;31.09
19576;BME280;41589;51.196;7.074;2022-08-21T15:44:42;98956.53;;;27.11;31.34
19576;BME280;41589;51.196;7.074;2022-08-21T15:49:44;98945.34;;;27.15;31.96
19576;BME280;41589;51.196;7.074;2022-08-21T15:54:45;98947.22;;;27.28;31.67
19576;BME280;41589;51.196;7.074;2022-08-21T15:59:50;98952.16;;;26.95;32.05
19576;BME280;41589;51.196;7.074;2022-08-21T16:04:52;98940.81;;;26.74;32.18
19576;BME280;41589;51.196;7.074;2022-08-21T16:09:53;98948.13;;;26.83;32.92
19576;BME280;41589;51.196;7.074;2022-08-21T16:14:54;98957.59;;;26.68;32.63
19576;BME280;41589;51.196;7.074;2022-08-21T16:19:58;98954.72;;;26.37;32.74
19576;BME280;41589;51.196;7.074;2022-08-21T16:25:06;98948.56;;;26.33;33.36
19576;BME280;41589;51.196;7.074;2022-08-21T16:30:07;98951.97;;;26.24;33.39
19576;BME280;41589;51.196;7.074;2022-08-21T16:35:10;98947.97;;;26.04;33.77
19576;BME280;41589;51.196;7.074;2022-08-21T16:40:13;98939.69;;;25.93;33.79
19576;BME280;41589;51.196;7.074;2022-08-21T16:45:17;98949.66;;;25.84;34.03
19576;BME280;41589;51.196;7.074;2022-08-21T16:50:22;98946.78;;;25.84;34.43
19576;BME280;41589;51.196;7.074;2022-08-21T16:55:23;98949.63;;;25.77;34.75
19576;BME280;41589;51.196;7.074;2022-08-21T17:00:23;98955.41;;;25.77;34.59
19576;BME280;41589;51.196;7.074;2022-08-21T17:05:23;98956.47;;;25.58;35.32
19576;BME280;41589;51.196;7.074;2022-08-21T17:10:24;98951.03;;;25.40;34.75
19576;BME280;41589;51.196;7.074;2022-08-21T17:15:34;98951.41;;;25.36;35.03
19576;BME280;41589;51.196;7.074;2022-08-21T17:20:39;98956.78;;;25.32;35.40
19576;BME280;41589;51.196;7.074;2022-08-21T17:25:42;98957.94;;;25.37;34.94
19576;BME280;41589;51.196;7.074;2022-08-21T17:30:48;98955.78;;;25.29;35.01
19576;BME280;41589;51.196;7.074;2022-08-21T17:35:51;98950.97;;;25.24;34.86
19576;BME280;41589;51.196;7.074;2022-08-21T17:40:51;98960.97;;;25.23;35.25
19576;BME280;41589;51.196;7.074;2022-08-21T17:45:53;98962.28;;;25.22;35.27
19576;BME280;41589;51.196;7.074;2022-08-21T17:50:53;98955.88;;;25.09;35.09
19576;BME280;41589;51.196;7.074;2022-08-21T17:55:54;98957.16;;;25.00;35.00
19576;BME280;41589;51.196;7.074;2022-08-21T18:01:00;98960.50;;;24.83;35.26
19576;BME280;41589;51.196;7.074;2022-08-21T18:06:05;98967.88;;;24.63;35.40
19576;BME280;41589;51.196;7.074;2022-08-21T18:11:05;98970.91;;;24.58;35.54
19576;BME280;41589;51.196;7.074;2022-08-21T18:16:06;98970.66;;;24.48;36.17
19576;BME280;41589;51.196;7.074;2022-08-21T18:21:07;98960.72;;;24.36;35.45
19576;BME280;41589;51.196;7.074;2022-08-21T18:26:08;98964.66;;;24.25;35.94
19576;BME280;41589;51.196;7.074;2022-08-21T18:31:14;98969.22;;;24.21;36.01
19576;BME280;41589;51.196;7.074;2022-08-21T18:36:14;98973.56;;;24.14;36.13
19576;BME280;41589;51.196;7.074;2022-08-21T18:41:15;98973.84;;;24.03;36.79
19576;BME280;41589;51.196;7.074;2022-08-21T18:46:15;98980.50;;;23.98;37.25
19576;BME280;41589;51.196;7.074;2022-08-21T18:51:16;98984.00;;;23.83;37.26
19576;BME280;41589;51.196;7.074;2022-08-21T18:56:17;98983.16;;;23.75;37.91
19576;BME280;41589;51.196;7.074;2022-08-21T19:01:18;98983.25;;;23.69;38.10
19576;BME280;41589;51.196;7.074;2022-08-21T19:06:19;98984.47;;;23.60;38.32
19576;BME280;41589;51.196;7.074;2022-08-21T19:11:27;98992.22;;;23.52;38.55
19576;BME280;41589;51.196;7.074;2022-08-21T19:16:28;98999.00;;;23.42;38.49
19576;BME280;41589;51.196;7.074;2022-08-21T19:21:28;98996.28;;;23.23;38.69
19576;BME280;41589;51.196;7.074;2022-08-21T19:26:31;98999.50;;;23.06;38.47
19576;BME280;41589;51.196;7.074;2022-08-21T19:31:38;99001.94;;;23.02;38.10
19576;BME280;41589;51.196;7.074;2022-08-21T19:36:40;99009.63;;;22.94;37.71
19576;BME280;41589;51.196;7.074;2022-08-21T19:41:46;99000.56;;;22.90;37.69
19576;BME280;41589;51.196;7.074;2022-08-21T19:46:51;99006.28;;;22.90;37.69
19576;BME280;41589;51.196;7.074;2022-08-21T19:52:02;99002.13;;;22.91;37.99
19576;BME280;41589;51.196;7.074;2022-08-21T19:57:05;98997.25;;;22.86;38.14
19576;BME280;41589;51.196;7.074;2022-08-21T20:02:07;98996.06;;;22.81;38.12
19576;BME280;41589;51.196;7.074;2022-08-21T20:07:09;98999.56;;;22.74;38.05
19576;BME280;41589;51.196;7.074;2022-08-21T20:12:11;98995.94;;;22.73;38.04
19576;BME280;41589;51.196;7.074;2022-08-21T20:17:17;99006.63;;;22.73;38.24
19576;BME280;41589;51.196;7.074;2022-08-21T20:22:18;99013.25;;;22.68;38.25
19576;BME280;41589;51.196;7.074;2022-08-21T20:27:23;99011.69;;;22.54;39.19
19576;BME280;41589;51.196;7.074;2022-08-21T20:32:24;99016.22;;;22.62;39.20
19576;BME280;41589;51.196;7.074;2022-08-21T20:37:25;99004.19;;;22.51;38.69
19576;BME280;41589;51.196;7.074;2022-08-21T20:42:26;99007.88;;;22.32;38.64
19576;BME280;41589;51.196;7.074;2022-08-21T20:47:29;99014.00;;;22.23;39.22
19576;BME280;41589;51.196;7.074;2022-08-21T20:52:33;99016.88;;;22.23;39.25
19576;BME280;41589;51.196;7.074;2022-08-21T20:57:58;99006.03;;;22.16;39.44
19576;BME280;41589;51.196;7.074;2022-08-21T21:08:11;99007.56;;;22.17;40.15
19576;BME280;41589;51.196;7.074;2022-08-21T21:19:13;99003.28;;;22.10;40.13
19576;BME280;41589;51.196;7.074;2022-08-21T21:24:10;99007.28;;;22.21;40.78
19576;BME280;41589;51.196;7.074;2022-08-21T21:34:22;99005.63;;;22.25;40.94
19576;BME280;41589;51.196;7.074;2022-08-21T22:01:20;99009.31;;;22.07;41.40
19576;BME280;41589;51.196;7.074;2022-08-21T22:06:59;99014.44;;;21.95;42.32
19576;BME280;41589;51.196;7.074;2022-08-21T22:17:32;99008.50;;;21.55;43.71
19576;BME280;41589;51.196;7.074;2022-08-21T22:22:34;99001.69;;;21.40;44.78
19576;BME280;41589;51.196;7.074;2022-08-21T22:27:38;99002.28;;;21.14;45.37
19576;BME280;41589;51.196;7.074;2022-08-21T22:32:48;99000.72;;;21.13;46.04
19576;BME280;41589;51.196;7.074;2022-08-21T22:37:55;99010.63;;;21.12;46.41
19576;BME280;41589;51.196;7.074;2022-08-21T22:48:07;99011.69;;;21.09;46.92
19576;BME280;41589;51.196;7.074;2022-08-21T22:53:21;99012.28;;;21.26;46.88
19576;BME280;41589;51.196;7.074;2022-08-21T22:58:56;99012.38;;;20.96;47.72
19576;BME280;41589;51.196;7.074;2022-08-21T23:04:09;99015.25;;;20.96;48.09
19576;BME280;41589;51.196;7.074;2022-08-21T23:09:20;99006.78;;;21.28;47.40
19576;BME280;41589;51.196;7.074;2022-08-21T23:14:23;99009.69;;;21.22;47.64
19576;BME280;41589;51.196;7.074;2022-08-21T23:30:17;99000.34;;;21.22;48.18
19576;BME280;41589;51.196;7.074;2022-08-21T23:35:27;99000.28;;;21.27;48.04
19576;BME280;41589;51.196;7.074;2022-08-21T23:40:55;99000.63;;;20.99;48.70
19576;BME280;41589;51.196;7.074;2022-08-21T23:51:11;98999.53;;;21.02;48.55
19576;BME280;41589;51.196;7.074;2022-08-21T23:56:51;98997.53;;;20.73;49.58
